createdAt,value
2023-01-19T00:00:38.347Z,-1.14
2023-01-19T00:03:06.151Z,-1.06
2023-01-19T00:05:33.730Z,-1.13
2023-01-19T00:08:14.473Z,-1.13
2023-01-19T00:10:42.582Z,-1.14
2023-01-19T00:13:09.459Z,-1.13
2023-01-19T00:15:36.383Z,-1.11
2023-01-19T00:18:03.323Z,-0.91
2023-01-19T00:20:32.622Z,-0.99
2023-01-19T00:22:59.907Z,-0.97
2023-01-19T00:25:27.014Z,-0.95
2023-01-19T00:27:54.092Z,-0.93
2023-01-19T00:30:20.938Z,-0.77
2023-01-19T00:32:47.746Z,-0.80
2023-01-19T00:35:14.940Z,-0.84
2023-01-19T00:37:45.999Z,-0.72
2023-01-19T00:40:13.870Z,-0.82
2023-01-19T00:42:41.424Z,-0.76
2023-01-19T00:45:09.257Z,-0.54
2023-01-19T00:47:36.309Z,-0.44
2023-01-19T00:50:03.252Z,-0.52
2023-01-19T00:52:30.085Z,-0.37
2023-01-19T00:54:56.881Z,-0.50
2023-01-19T00:57:23.768Z,-0.48
2023-01-19T00:59:50.570Z,-0.51
2023-01-19T01:02:17.672Z,-0.49
2023-01-19T01:04:44.609Z,-0.44
2023-01-19T01:07:11.406Z,-0.26
2023-01-19T01:09:38.212Z,-0.41
2023-01-19T01:12:06.032Z,-0.25
2023-01-19T01:14:32.984Z,-0.21
2023-01-19T01:17:00.554Z,-0.22
2023-01-19T01:19:27.416Z,-0.16
2023-01-19T01:21:55.415Z,-0.14
2023-01-19T01:24:22.366Z,0.00
2023-01-19T01:26:49.333Z,0.01
2023-01-19T01:29:16.250Z,-0.04
2023-01-19T01:31:43.154Z,0.02
2023-01-19T01:34:10.014Z,0.06
2023-01-19T01:36:36.917Z,0.10
2023-01-19T01:39:04.460Z,0.20
2023-01-19T01:41:32.067Z,0.12
2023-01-19T01:44:01.662Z,0.17
2023-01-19T01:46:30.058Z,0.26
2023-01-19T01:49:02.725Z,0.19
2023-01-19T01:51:32.682Z,0.17
2023-01-19T01:54:07.922Z,0.18
2023-01-19T01:56:39.584Z,0.31
2023-01-19T01:59:09.213Z,0.28
2023-01-19T02:01:55.204Z,0.30
2023-01-19T02:04:23.066Z,0.39
2023-01-19T02:07:08.956Z,0.30
2023-01-19T02:09:55.156Z,0.35
2023-01-19T02:12:41.236Z,0.43
2023-01-19T02:15:18.841Z,0.41
2023-01-19T02:17:46.221Z,0.29
2023-01-19T02:20:13.198Z,0.33
2023-01-19T02:22:49.910Z,0.37
2023-01-19T02:25:17.498Z,0.51
2023-01-19T02:27:44.517Z,0.34
2023-01-19T02:30:12.568Z,0.47
2023-01-19T02:32:39.428Z,0.40
2023-01-19T02:35:06.658Z,0.57
2023-01-19T02:37:37.435Z,0.59
2023-01-19T02:40:05.078Z,0.60
2023-01-19T02:42:46.031Z,0.61
2023-01-19T02:45:14.426Z,0.50
2023-01-19T02:47:45.925Z,0.59
2023-01-19T02:50:32.155Z,0.61
2023-01-19T02:53:04.374Z,0.65
2023-01-19T02:55:31.696Z,0.64
2023-01-19T02:58:10.009Z,0.63
2023-01-19T03:00:36.819Z,0.71
2023-01-19T03:03:19.506Z,0.71
2023-01-19T03:05:53.915Z,0.59
2023-01-19T03:08:20.692Z,0.69
2023-01-19T03:10:51.949Z,0.57
2023-01-19T03:13:18.726Z,0.48
2023-01-19T03:15:50.987Z,0.56
2023-01-19T03:18:23.051Z,0.61
2023-01-19T03:20:53.122Z,0.62
2023-01-19T03:23:21.620Z,0.63
2023-01-19T03:25:49.874Z,0.55
2023-01-19T03:28:19.251Z,0.62
2023-01-19T03:30:50.503Z,0.74
2023-01-19T03:33:23.077Z,0.64
2023-01-19T03:35:52.577Z,0.63
2023-01-19T03:38:22.327Z,0.09
2023-01-19T03:40:49.952Z,0.65
2023-01-19T03:43:17.949Z,0.73
2023-01-19T03:45:45.204Z,0.66
2023-01-19T03:48:12.377Z,0.77
2023-01-19T03:50:39.354Z,0.65
2023-01-19T03:53:06.209Z,0.74
2023-01-19T03:55:34.092Z,0.65
2023-01-19T03:58:01.000Z,0.52
2023-01-19T04:00:28.541Z,0.50
2023-01-19T04:02:55.556Z,0.50
2023-01-19T04:05:22.399Z,0.61
2023-01-19T04:07:49.951Z,0.55
2023-01-19T04:10:17.249Z,0.64
2023-01-19T04:12:44.240Z,0.69
2023-01-19T04:15:11.116Z,0.67
2023-01-19T04:17:38.464Z,0.70
2023-01-19T04:20:05.960Z,0.68
2023-01-19T04:22:32.788Z,0.55
2023-01-19T04:24:59.680Z,0.64
2023-01-19T04:27:26.524Z,0.68
2023-01-19T04:29:53.321Z,0.67
2023-01-19T04:32:20.145Z,0.71
2023-01-19T04:34:46.935Z,0.57
2023-01-19T04:37:13.994Z,0.57
2023-01-19T04:39:40.866Z,0.67
2023-01-19T04:42:07.753Z,0.63
2023-01-19T04:44:34.652Z,0.55
2023-01-19T04:47:02.500Z,0.44
2023-01-19T04:49:29.462Z,0.44
2023-01-19T04:51:56.317Z,0.56
2023-01-19T04:54:23.247Z,0.65
2023-01-19T04:56:50.201Z,0.56
2023-01-19T04:59:17.086Z,0.68
2023-01-19T05:01:43.954Z,0.61
2023-01-19T05:04:10.904Z,0.68
2023-01-19T05:06:37.862Z,0.61
2023-01-19T05:09:04.738Z,0.68
2023-01-19T05:11:31.544Z,0.71
2023-01-19T05:13:58.367Z,0.68
2023-01-19T05:16:25.531Z,0.80
2023-01-19T05:18:52.632Z,0.62
2023-01-19T05:21:20.032Z,0.71
2023-01-19T05:23:46.918Z,0.78
2023-01-19T05:26:13.883Z,0.68
2023-01-19T05:28:40.717Z,0.69
2023-01-19T05:31:07.636Z,0.69
2023-01-19T05:33:34.680Z,0.77
2023-01-19T05:36:02.048Z,0.68
2023-01-19T05:38:35.279Z,0.67
2023-01-19T05:41:02.721Z,0.64
2023-01-19T05:43:29.654Z,0.77
2023-01-19T05:45:56.487Z,0.71
2023-01-19T05:48:23.452Z,0.65
2023-01-19T05:50:51.335Z,0.81
2023-01-19T05:53:18.207Z,0.73
2023-01-19T05:55:45.039Z,0.72
2023-01-19T05:58:11.865Z,0.86
2023-01-19T06:00:38.667Z,0.86
2023-01-19T06:03:06.538Z,0.83
2023-01-19T06:05:33.945Z,0.80
2023-01-19T06:08:01.354Z,0.66
2023-01-19T06:10:28.178Z,0.70
2023-01-19T06:12:55.003Z,0.74
2023-01-19T06:15:22.716Z,0.68
2023-01-19T06:17:49.611Z,0.82
2023-01-19T06:20:16.639Z,0.69
2023-01-19T06:22:43.538Z,0.74
2023-01-19T06:25:11.868Z,0.74
2023-01-19T06:27:39.814Z,0.61
2023-01-19T06:30:06.926Z,0.59
2023-01-19T06:32:33.943Z,0.81
2023-01-19T06:35:00.739Z,0.67
2023-01-19T06:37:28.530Z,0.76
2023-01-19T06:39:55.344Z,0.77
2023-01-19T06:42:22.192Z,0.85
2023-01-19T06:44:49.275Z,0.93
2023-01-19T06:47:16.642Z,0.88
2023-01-19T06:49:43.769Z,0.92
2023-01-19T06:52:11.397Z,0.67
2023-01-19T06:54:38.268Z,0.65
2023-01-19T06:57:05.269Z,0.62
2023-01-19T06:59:32.175Z,0.64
2023-01-19T07:01:59.264Z,0.73
2023-01-19T07:04:26.973Z,0.57
2023-01-19T07:06:53.882Z,0.57
2023-01-19T07:09:20.727Z,0.59
2023-01-19T07:11:48.379Z,0.62
2023-01-19T07:14:15.602Z,0.68
2023-01-19T07:16:42.763Z,0.64
2023-01-19T07:19:10.700Z,0.72
2023-01-19T07:21:37.493Z,0.66
2023-01-19T07:24:04.379Z,0.67
2023-01-19T07:26:31.225Z,0.71
2023-01-19T07:28:58.081Z,0.69
2023-01-19T07:31:25.045Z,0.73
2023-01-19T07:33:52.000Z,0.74
2023-01-19T07:36:19.146Z,0.83
2023-01-19T07:38:46.013Z,0.74
2023-01-19T07:41:12.896Z,0.67
2023-01-19T07:43:39.887Z,0.55
2023-01-19T07:46:08.239Z,0.76
2023-01-19T07:48:35.168Z,0.63
2023-01-19T07:51:05.989Z,0.74
2023-01-19T07:53:32.901Z,0.80
2023-01-19T07:56:00.121Z,0.65
2023-01-19T07:58:27.279Z,0.68
2023-01-19T08:00:54.327Z,0.62
2023-01-19T08:03:21.270Z,0.71
2023-01-19T08:05:52.283Z,0.89
2023-01-19T08:08:19.605Z,0.88
2023-01-19T08:10:49.180Z,0.84
2023-01-19T08:13:16.010Z,0.80
2023-01-19T08:15:42.968Z,0.77
2023-01-19T08:18:11.566Z,0.82
2023-01-19T08:20:38.454Z,0.64
2023-01-19T08:23:05.474Z,0.78
2023-01-19T08:25:36.702Z,0.76
2023-01-19T08:28:04.613Z,0.67
2023-01-19T08:30:31.783Z,0.77
2023-01-19T08:33:04.207Z,0.77
2023-01-19T08:35:31.574Z,0.63
2023-01-19T08:38:01.226Z,0.47
2023-01-19T08:40:29.100Z,0.41
2023-01-19T08:43:04.718Z,0.43
2023-01-19T08:45:31.536Z,0.44
2023-01-19T08:48:01.259Z,0.54
2023-01-19T08:50:29.621Z,0.57
2023-01-19T08:52:58.046Z,0.58
2023-01-19T08:55:25.467Z,0.70
2023-01-19T08:57:53.131Z,0.66
2023-01-19T09:00:21.023Z,0.73
2023-01-19T09:02:48.113Z,0.61
2023-01-19T09:05:15.169Z,0.65
2023-01-19T09:07:43.532Z,0.57
2023-01-19T09:10:10.585Z,0.68
2023-01-19T09:12:37.438Z,0.83
2023-01-19T09:15:04.985Z,0.93
2023-01-19T09:17:31.881Z,0.98
2023-01-19T09:19:58.715Z,0.93
2023-01-19T09:22:25.630Z,0.97
2023-01-19T09:24:52.464Z,1.10
2023-01-19T09:27:19.842Z,1.25
2023-01-19T09:29:52.364Z,1.36
2023-01-19T09:32:20.465Z,1.54
2023-01-19T09:34:47.360Z,1.61
2023-01-19T09:37:16.047Z,1.73
2023-01-19T09:39:42.929Z,1.81
2023-01-19T09:42:24.508Z,1.83
2023-01-19T09:44:53.158Z,1.77
2023-01-19T09:47:28.267Z,1.72
2023-01-19T09:50:03.068Z,1.79
2023-01-19T09:52:32.639Z,1.61
2023-01-19T09:54:59.651Z,1.53
2023-01-19T09:57:27.376Z,1.43
2023-01-19T09:59:59.349Z,1.65
2023-01-19T10:02:45.469Z,1.65
2023-01-19T10:05:27.684Z,1.53
2023-01-19T10:08:03.604Z,1.69
2023-01-19T10:10:31.964Z,1.43
2023-01-19T10:13:19.205Z,1.57
2023-01-19T10:16:04.761Z,1.32
2023-01-19T10:18:45.855Z,1.30
2023-01-19T10:21:18.722Z,1.29
2023-01-19T10:23:54.602Z,1.43
2023-01-19T10:26:24.385Z,1.32
2023-01-19T10:28:54.199Z,1.47
2023-01-19T10:31:23.104Z,1.41
2023-01-19T10:33:52.452Z,1.59
2023-01-19T10:36:38.179Z,1.64
2023-01-19T10:39:05.898Z,1.60
2023-01-19T10:41:35.603Z,1.57
2023-01-19T10:44:04.345Z,1.63
2023-01-19T10:46:45.435Z,1.69
2023-01-19T10:49:27.452Z,1.65
2023-01-19T10:51:55.270Z,1.72
2023-01-19T10:54:22.767Z,1.78
2023-01-19T10:56:57.022Z,1.61
2023-01-19T10:59:30.039Z,1.57
2023-01-19T11:02:15.592Z,1.73
2023-01-19T11:04:44.898Z,1.54
2023-01-19T11:07:33.030Z,1.66
2023-01-19T11:10:15.114Z,1.64
2023-01-19T11:12:55.541Z,1.80
2023-01-19T11:15:23.950Z,1.89
2023-01-19T11:17:51.920Z,1.74
2023-01-19T11:20:23.459Z,1.86
2023-01-19T11:23:04.525Z,1.95
2023-01-19T11:25:32.700Z,1.79
2023-01-19T11:28:00.515Z,1.93
2023-01-19T11:30:27.589Z,2.01
2023-01-19T11:32:56.166Z,1.41
2023-01-19T11:35:36.949Z,2.01
2023-01-19T11:38:12.790Z,1.84
2023-01-19T11:40:40.891Z,1.80
2023-01-19T11:43:11.202Z,1.88
2023-01-19T11:45:39.580Z,1.74
2023-01-19T11:48:07.295Z,1.71
2023-01-19T11:50:53.862Z,1.77
2023-01-19T11:53:25.408Z,1.94
2023-01-19T11:55:54.846Z,2.03
2023-01-19T11:58:21.842Z,2.26
2023-01-19T12:00:58.197Z,1.29
2023-01-19T12:03:34.381Z,2.08
2023-01-19T12:06:04.797Z,1.99
2023-01-19T12:08:36.153Z,2.14
2023-01-19T12:11:04.684Z,2.11
2023-01-19T12:13:32.263Z,1.94
2023-01-19T12:16:07.577Z,1.93
2023-01-19T12:18:38.389Z,2.01
2023-01-19T12:21:05.367Z,1.92
2023-01-19T12:23:41.082Z,1.82
2023-01-19T12:26:24.607Z,1.94
2023-01-19T12:28:52.767Z,2.29
2023-01-19T12:31:21.518Z,2.79
2023-01-19T12:33:49.095Z,3.02
2023-01-19T12:36:35.451Z,3.03
2023-01-19T12:39:12.208Z,2.64
2023-01-19T12:41:40.156Z,2.72
2023-01-19T12:44:09.795Z,2.91
2023-01-19T12:46:36.607Z,2.67
2023-01-19T12:49:27.160Z,2.35
2023-01-19T12:52:11.398Z,2.60
2023-01-19T12:54:40.480Z,2.41
2023-01-19T12:57:23.088Z,2.20
2023-01-19T12:59:57.199Z,2.13
2023-01-19T13:02:24.057Z,1.88
2023-01-19T13:05:09.580Z,1.87
2023-01-19T13:07:55.271Z,2.06
2023-01-19T13:10:40.874Z,2.05
2023-01-19T13:13:18.097Z,1.92
2023-01-19T13:15:45.080Z,1.99
2023-01-19T13:18:23.460Z,1.99
2023-01-19T13:20:52.990Z,2.12
2023-01-19T13:23:24.369Z,1.92
2023-01-19T13:25:53.328Z,1.94
2023-01-19T13:28:23.744Z,1.89
2023-01-19T13:30:55.554Z,1.82
2023-01-19T13:33:24.067Z,1.76
2023-01-19T13:35:55.598Z,1.77
2023-01-19T13:38:23.736Z,1.87
2023-01-19T13:40:50.975Z,1.83
2023-01-19T13:43:19.448Z,1.72
2023-01-19T13:45:50.676Z,1.69
2023-01-19T13:48:22.130Z,1.68
2023-01-19T13:50:59.192Z,1.79
2023-01-19T13:53:26.101Z,1.83
2023-01-19T13:56:09.068Z,1.88
2023-01-19T13:58:35.986Z,1.88
2023-01-19T14:01:02.838Z,1.90
2023-01-19T14:03:29.830Z,1.84
2023-01-19T14:05:56.767Z,1.88
2023-01-19T14:08:25.505Z,1.81
2023-01-19T14:10:56.199Z,1.72
2023-01-19T14:13:29.471Z,1.61
2023-01-19T14:15:58.065Z,1.52
2023-01-19T14:18:25.432Z,1.54
2023-01-19T14:21:03.235Z,1.51
2023-01-19T14:23:42.047Z,1.53
2023-01-19T14:26:27.989Z,1.55
2023-01-19T14:28:54.853Z,1.01
2023-01-19T14:31:27.386Z,1.52
2023-01-19T14:33:55.553Z,1.51
2023-01-19T14:36:33.220Z,1.49
2023-01-19T14:39:01.109Z,1.55
2023-01-19T14:41:36.797Z,1.56
2023-01-19T14:44:08.296Z,1.53
2023-01-19T14:46:35.231Z,1.50
2023-01-19T14:49:03.173Z,1.44
2023-01-19T14:51:31.266Z,1.42
2023-01-19T14:53:59.972Z,1.41
2023-01-19T14:56:28.333Z,1.37
2023-01-19T14:58:55.748Z,1.38
2023-01-19T15:01:23.457Z,1.41
2023-01-19T15:03:50.599Z,1.49
2023-01-19T15:06:18.756Z,1.49
2023-01-19T15:08:46.150Z,1.53
2023-01-19T15:11:22.783Z,1.56
2023-01-19T15:13:49.893Z,1.54
2023-01-19T15:16:16.768Z,1.65
2023-01-19T15:18:43.639Z,1.71
2023-01-19T15:21:19.943Z,1.63
2023-01-19T15:23:47.527Z,1.54
2023-01-19T15:26:18.781Z,1.52
2023-01-19T15:28:45.982Z,1.54
2023-01-19T15:31:17.081Z,1.53
2023-01-19T15:33:44.198Z,1.53
2023-01-19T15:36:17.720Z,1.49
2023-01-19T15:38:45.065Z,1.46
2023-01-19T15:41:25.710Z,1.43
2023-01-19T15:43:53.036Z,1.47
2023-01-19T15:46:20.766Z,1.44
2023-01-19T15:48:48.082Z,1.51
2023-01-19T15:51:16.391Z,1.46
2023-01-19T15:53:43.526Z,1.47
2023-01-19T15:56:14.062Z,1.42
2023-01-19T15:58:40.998Z,1.35
2023-01-19T16:01:11.784Z,1.37
2023-01-19T16:03:38.668Z,1.36
2023-01-19T16:06:05.611Z,1.35
2023-01-19T16:08:32.675Z,1.37
2023-01-19T16:11:03.480Z,1.30
2023-01-19T16:13:30.984Z,1.25
2023-01-19T16:16:01.400Z,1.24
2023-01-19T16:18:28.308Z,1.22
2023-01-19T16:20:55.146Z,1.27
2023-01-19T16:23:21.987Z,1.31
2023-01-19T16:25:56.113Z,1.31
2023-01-19T16:28:23.235Z,1.30
2023-01-19T16:30:50.120Z,1.29
2023-01-19T16:33:17.328Z,1.30
2023-01-19T16:35:44.172Z,1.31
2023-01-19T16:38:11.100Z,1.32
2023-01-19T16:40:38.208Z,1.34
2023-01-19T16:43:05.089Z,1.31
2023-01-19T16:45:32.006Z,1.35
2023-01-19T16:47:58.894Z,1.42
2023-01-19T16:50:25.801Z,1.36
2023-01-19T16:52:55.921Z,1.35
2023-01-19T16:55:22.836Z,1.33
2023-01-19T16:57:49.699Z,1.30
2023-01-19T17:00:16.790Z,1.42
2023-01-19T17:02:43.791Z,1.46
2023-01-19T17:05:10.848Z,1.43
2023-01-19T17:07:38.044Z,1.54
2023-01-19T17:10:05.425Z,1.52
2023-01-19T17:12:32.471Z,1.45
2023-01-19T17:14:59.426Z,1.40
2023-01-19T17:17:26.353Z,1.37
2023-01-19T17:19:53.275Z,1.37
2023-01-19T17:22:20.101Z,1.34
2023-01-19T17:24:47.008Z,1.29
2023-01-19T17:27:13.841Z,1.25
2023-01-19T17:29:59.467Z,1.31
2023-01-19T17:32:26.359Z,1.26
2023-01-19T17:34:53.293Z,1.26
2023-01-19T17:37:24.241Z,1.32
2023-01-19T17:39:51.216Z,1.41
2023-01-19T17:42:18.084Z,1.28
2023-01-19T17:44:45.157Z,1.24
2023-01-19T17:47:12.034Z,1.27
2023-01-19T17:49:38.889Z,1.22
2023-01-19T17:52:05.822Z,1.16
2023-01-19T17:54:32.729Z,1.20
2023-01-19T17:56:59.863Z,1.10
2023-01-19T17:59:26.724Z,1.21
2023-01-19T18:01:54.541Z,1.15
2023-01-19T18:04:21.494Z,1.12
2023-01-19T18:06:49.864Z,1.07
2023-01-19T18:09:16.768Z,1.01
2023-01-19T18:11:43.795Z,1.00
2023-01-19T18:14:10.674Z,0.93
2023-01-19T18:16:37.589Z,0.91
2023-01-19T18:19:04.473Z,0.90
2023-01-19T18:21:31.303Z,0.93
2023-01-19T18:24:02.198Z,0.92
2023-01-19T18:26:29.747Z,0.97
2023-01-19T18:28:57.178Z,1.00
2023-01-19T18:31:24.038Z,0.97
2023-01-19T18:33:50.954Z,0.92
2023-01-19T18:36:18.147Z,0.95
2023-01-19T18:38:45.092Z,0.99
2023-01-19T18:41:13.575Z,1.02
2023-01-19T18:43:40.649Z,1.05
2023-01-19T18:46:07.790Z,1.05
2023-01-19T18:48:35.027Z,1.10
2023-01-19T18:51:06.131Z,1.08
2023-01-19T18:53:33.025Z,1.07
2023-01-19T18:56:01.896Z,1.09
2023-01-19T18:58:29.367Z,1.05
2023-01-19T19:00:56.742Z,1.01
2023-01-19T19:03:23.714Z,0.93
2023-01-19T19:05:50.633Z,0.98
2023-01-19T19:08:17.851Z,1.01
2023-01-19T19:10:45.085Z,1.02
2023-01-19T19:13:12.613Z,1.00
2023-01-19T19:15:39.543Z,1.02
2023-01-19T19:18:08.798Z,1.05
2023-01-19T19:20:38.486Z,1.11
2023-01-19T19:23:05.383Z,1.06
2023-01-19T19:25:32.921Z,1.05
2023-01-19T19:27:59.799Z,1.05
2023-01-19T19:30:26.735Z,1.04
2023-01-19T19:32:56.760Z,1.04
2023-01-19T19:35:23.835Z,1.04
2023-01-19T19:37:51.533Z,0.98
2023-01-19T19:40:18.489Z,1.01
2023-01-19T19:42:45.428Z,1.00
2023-01-19T19:45:12.527Z,1.02
2023-01-19T19:47:39.385Z,1.04
2023-01-19T19:50:06.426Z,1.10
2023-01-19T19:52:37.387Z,1.15
2023-01-19T19:55:04.445Z,1.15
2023-01-19T19:57:31.255Z,1.17
2023-01-19T19:59:58.074Z,1.22
2023-01-19T20:02:24.890Z,1.31
2023-01-19T20:04:51.767Z,1.23
2023-01-19T20:07:19.568Z,1.21
2023-01-19T20:09:46.390Z,1.17
2023-01-19T20:12:13.201Z,1.16
2023-01-19T20:14:40.046Z,1.12
2023-01-19T20:17:06.856Z,1.07
2023-01-19T20:19:33.686Z,1.11
2023-01-19T20:22:00.513Z,1.03
2023-01-19T20:24:27.362Z,1.00
2023-01-19T20:26:56.177Z,0.98
2023-01-19T20:29:23.094Z,0.95
2023-01-19T20:31:51.913Z,0.92
2023-01-19T20:34:19.939Z,0.86
2023-01-19T20:36:49.618Z,0.83
2023-01-19T20:39:17.615Z,0.83
2023-01-19T20:41:45.470Z,0.80
2023-01-19T20:44:13.739Z,0.77
2023-01-19T20:46:40.575Z,0.74
2023-01-19T20:49:07.473Z,0.75
2023-01-19T20:51:35.518Z,0.77
2023-01-19T20:54:02.355Z,0.82
2023-01-19T20:56:29.180Z,0.83
2023-01-19T20:58:56.000Z,0.83
2023-01-19T21:01:26.337Z,0.81
2023-01-19T21:03:53.605Z,0.77
2023-01-19T21:06:21.048Z,0.70
2023-01-19T21:08:49.960Z,0.60
2023-01-19T21:11:19.605Z,0.48
2023-01-19T21:13:47.261Z,0.43
2023-01-19T21:16:14.873Z,0.41
2023-01-19T21:18:41.713Z,0.35
2023-01-19T21:21:14.958Z,0.30
2023-01-19T21:23:47.995Z,0.31
2023-01-19T21:26:14.875Z,0.33
2023-01-19T21:28:41.951Z,0.42
2023-01-19T21:31:12.646Z,0.46
2023-01-19T21:33:40.300Z,0.43
2023-01-19T21:36:07.428Z,0.45
2023-01-19T21:38:35.604Z,0.47
2023-01-19T21:41:07.476Z,0.46
2023-01-19T21:43:35.989Z,0.51
2023-01-19T21:46:10.230Z,0.56
2023-01-19T21:48:37.140Z,0.59
2023-01-19T21:51:04.081Z,0.59
2023-01-19T21:53:30.898Z,0.58
2023-01-19T21:55:58.762Z,0.60
2023-01-19T21:58:30.534Z,0.51
2023-01-19T22:01:02.286Z,0.52
2023-01-19T22:03:29.392Z,0.52
2023-01-19T22:06:04.594Z,0.51
2023-01-19T22:08:31.417Z,0.56
2023-01-19T22:11:04.952Z,0.55
2023-01-19T22:13:32.463Z,0.53
2023-01-19T22:16:03.510Z,0.53
2023-01-19T22:18:30.625Z,0.52
2023-01-19T22:21:06.499Z,0.54
2023-01-19T22:23:33.425Z,0.50
2023-01-19T22:26:00.231Z,0.46
2023-01-19T22:28:27.103Z,0.45
2023-01-19T22:30:54.058Z,0.47
2023-01-19T22:33:20.976Z,0.43
2023-01-19T22:35:47.778Z,0.36
2023-01-19T22:38:15.061Z,0.30
2023-01-19T22:40:41.931Z,0.32
2023-01-19T22:43:08.802Z,0.32
2023-01-19T22:45:39.909Z,0.38
2023-01-19T22:48:06.906Z,0.43
2023-01-19T22:50:35.043Z,0.48
2023-01-19T22:53:01.856Z,0.40
2023-01-19T22:55:29.501Z,0.41
2023-01-19T22:57:56.343Z,0.41
2023-01-19T23:00:23.243Z,0.42
2023-01-19T23:02:50.054Z,0.35
2023-01-19T23:05:17.254Z,0.28
2023-01-19T23:07:44.245Z,0.28
2023-01-19T23:10:11.265Z,0.26
2023-01-19T23:12:38.139Z,0.23
2023-01-19T23:15:05.329Z,0.22
2023-01-19T23:17:32.130Z,0.27
2023-01-19T23:19:58.956Z,0.33
2023-01-19T23:22:25.751Z,0.35
2023-01-19T23:24:52.596Z,0.41
2023-01-19T23:27:19.414Z,0.50
2023-01-19T23:29:46.239Z,0.69
2023-01-19T23:32:13.176Z,0.62
2023-01-19T23:34:40.012Z,0.48
2023-01-19T23:37:06.836Z,0.47
2023-01-19T23:39:33.646Z,0.43
2023-01-19T23:42:00.475Z,0.43
2023-01-19T23:44:27.299Z,0.45
2023-01-19T23:46:54.106Z,0.45
2023-01-19T23:49:21.186Z,0.42
2023-01-19T23:51:48.055Z,0.41
2023-01-19T23:54:14.888Z,0.43
2023-01-19T23:56:42.786Z,0.45
2023-01-19T23:59:11.120Z,0.44
